MST,Max TemperatureF,Mean TemperatureF,Min TemperatureF,Max Dew PointF,MeanDew PointF,Min DewpointF,Max Humidity, Mean Humidity, Min Humidity, Max Sea Level PressureIn, Mean Sea Level PressureIn, Min Sea Level PressureIn, Max VisibilityMiles, Mean VisibilityMiles, Min VisibilityMiles, Max Wind SpeedMPH, Mean Wind SpeedMPH, Max Gust SpeedMPH,PrecipitationIn, CloudCover, Events, WindDirDegrees
2013-1-1,54,44,33,29,26,17,82,51,29,30.26,30.19,30.12,10,10,8,9,1,,0.00,0,,329
2013-1-2,61,48,35,24,18,12,59,32,15,30.14,30.07,29.99,10,10,9,12,3,,0.00,0,,11
2013-1-3,61,50,39,25,13,10,57,23,15,30.20,30.10,30.03,10,10,10,18,7,25,0.00,0,,44
2013-1-4,57,47,37,24,19,16,53,34,20,30.29,30.24,30.19,10,10,10,6,1,,0.00,0,,93
2013-1-5,61,47,33,25,23,18,70,43,19,30.34,30.25,30.19,10,10,10,4,0,,0.00,0,,230
2013-1-6,64,52,39,27,23,15,60,36,16,30.18,30.04,29.92,10,10,10,9,1,,0.00,0,,128
2013-1-7,60,50,39,28,26,18,60,42,25,29.94,29.90,29.83,10,10,2,8,2,,0.00,0,,325
2013-1-8,66,52,39,27,24,18,62,38,16,30.09,29.99,29.89,10,10,9,6,2,,0.00,0,,261
2013-1-9,72,56,39,30,27,23,63,38,16,30.19,30.07,29.98,10,10,9,5,2,,0.00,0,,297
2013-1-10,60,51,42,38,28,24,59,41,27,29.96,29.86,29.78,10,10,8,13,2,22,0.00,2,Rain,246
2013-1-11,50,44,36,23,15,1,52,35,13,30.08,30.00,29.88,10,10,10,13,5,20,0.00,1,,255
2013-1-12,48,38,28,18,12,6,63,39,18,30.11,30.05,29.98,10,10,10,9,1,,0.00,0,,247
2013-1-13,46,36,27,15,9,0,61,33,15,30.16,30.08,30.04,10,10,10,8,1,,0.00,0,,216
2013-1-14,42,34,26,14,8,4,51,35,21,30.27,30.16,30.06,10,10,6,8,1,,0.00,0,,242
2013-1-15,48,37,26,8,0,-5,39,22,12,30.42,30.35,30.27,10,10,9,7,4,,0.00,0,,297
2013-1-16,60,46,32,22,13,8,47,29,16,30.39,30.31,30.22,10,10,10,4,1,,0.00,0,,340
2013-1-17,71,54,37,23,20,17,55,31,13,30.26,30.19,30.12,10,10,10,9,2,,0.00,0,,76
2013-1-18,72,58,43,27,23,19,46,29,14,30.22,30.14,30.07,10,10,10,5,2,,0.00,0,,353
2013-1-19,73,58,42,27,24,20,55,33,13,30.22,30.14,30.09,10,10,10,5,0,,0.00,0,,248
2013-1-20,73,58,42,27,23,16,55,31,11,30.14,30.07,29.99,10,10,10,5,0,,0.00,0,,254
2013-1-21,78,61,44,28,22,16,46,28,10,30.10,30.03,29.98,10,10,10,5,1,,0.00,0,,239
2013-1-22,78,62,46,28,23,16,47,26,10,30.15,30.09,30.05,10,10,10,5,1,,0.00,0,,294
2013-1-23,79,64,48,33,28,23,44,29,14,30.18,30.10,30.05,10,10,10,5,0,,0.00,0,,272
2013-1-24,64,60,57,52,42,29,78,53,30,30.21,30.15,30.08,10,10,10,5,0,,0.02,4,Rain,310
2013-1-25,73,64,54,55,48,44,77,60,34,30.14,30.05,29.92,10,10,10,7,2,,0.00,3,Rain,280
2013-1-26,62,58,55,56,55,54,100,93,80,29.99,29.93,29.86,10,5,2,10,4,17,1.48,8,Rain,208
2013-1-27,64,60,55,56,55,54,100,89,68,29.99,29.94,29.88,10,8,2,9,1,,0.14,8,Rain-Thunderstorm,212
2013-1-28,55,50,44,54,39,30,93,65,45,30.00,29.94,29.86,10,10,9,13,4,32,0.05,6,Rain,238
2013-1-29,55,46,36,35,29,23,89,56,29,30.19,30.07,30.00,10,10,10,9,3,21,0.00,1,,257
2013-1-30,59,48,37,34,30,21,77,53,25,30.34,30.26,30.20,10,10,10,7,2,,0.00,0,,226
2013-1-31,66,52,39,40,34,31,79,53,26,30.25,30.17,30.08,10,10,10,5,1,,0.00,0,,321